sensor_id;sensor_type;location;lat;lon;timestamp;temperature;humidity
67141;DHT22;54058;52.010;5.546;2023-07-20T00:00:17;17.90;77.30
67141;DHT22;54058;52.010;5.546;2023-07-20T00:02:43;17.80;77.30
67141;DHT22;54058;52.010;5.546;2023-07-20T00:05:09;17.70;77.90
67141;DHT22;54058;52.010;5.546;2023-07-20T00:07:35;17.70;78.10
67141;DHT22;54058;52.010;5.546;2023-07-20T00:10:00;17.70;78.40
67141;DHT22;54058;52.010;5.546;2023-07-20T00:12:26;17.60;78.50
67141;DHT22;54058;52.010;5.546;2023-07-20T00:14:51;17.60;78.50
67141;DHT22;54058;52.010;5.546;2023-07-20T00:17:19;17.60;78.60
67141;DHT22;54058;52.010;5.546;2023-07-20T00:19:44;17.60;82.40
67141;DHT22;54058;52.010;5.546;2023-07-20T00:22:10;17.50;78.50
67141;DHT22;54058;52.010;5.546;2023-07-20T00:24:36;17.50;78.80
67141;DHT22;54058;52.010;5.546;2023-07-20T00:27:01;17.40;79.10
67141;DHT22;54058;52.010;5.546;2023-07-20T00:29:28;17.40;79.20
67141;DHT22;54058;52.010;5.546;2023-07-20T00:31:53;17.30;79.50
67141;DHT22;54058;52.010;5.546;2023-07-20T00:34:19;17.30;79.60
67141;DHT22;54058;52.010;5.546;2023-07-20T00:36:44;17.20;79.60
67141;DHT22;54058;52.010;5.546;2023-07-20T00:39:10;17.20;79.80
67141;DHT22;54058;52.010;5.546;2023-07-20T00:41:35;17.20;79.80
67141;DHT22;54058;52.010;5.546;2023-07-20T00:44:01;17.10;80.10
67141;DHT22;54058;52.010;5.546;2023-07-20T00:46:27;17.00;79.90
67141;DHT22;54058;52.010;5.546;2023-07-20T00:48:53;17.00;80.10
67141;DHT22;54058;52.010;5.546;2023-07-20T00:51:20;17.00;80.00
67141;DHT22;54058;52.010;5.546;2023-07-20T00:53:46;17.00;79.80
67141;DHT22;54058;52.010;5.546;2023-07-20T00:56:12;17.10;79.90
67141;DHT22;54058;52.010;5.546;2023-07-20T00:58:38;17.00;79.70
67141;DHT22;54058;52.010;5.546;2023-07-20T01:01:03;17.10;79.60
67141;DHT22;54058;52.010;5.546;2023-07-20T01:03:29;17.10;79.40
67141;DHT22;54058;52.010;5.546;2023-07-20T01:11:53;17.10;80.00
67141;DHT22;54058;52.010;5.546;2023-07-20T01:14:20;17.10;79.80
67141;DHT22;54058;52.010;5.546;2023-07-20T01:16:45;17.10;80.00
67141;DHT22;54058;52.010;5.546;2023-07-20T01:19:13;17.00;79.60
67141;DHT22;54058;52.010;5.546;2023-07-20T01:22:02;17.00;79.90
67141;DHT22;54058;52.010;5.546;2023-07-20T01:27:22;17.00;79.80
67141;DHT22;54058;52.010;5.546;2023-07-20T01:32:47;17.00;80.40
67141;DHT22;54058;52.010;5.546;2023-07-20T01:35:14;17.00;79.90
67141;DHT22;54058;52.010;5.546;2023-07-20T01:37:43;16.90;80.10
67141;DHT22;54058;52.010;5.546;2023-07-20T01:40:11;16.90;80.20
67141;DHT22;54058;52.010;5.546;2023-07-20T01:42:37;16.90;80.10
67141;DHT22;54058;52.010;5.546;2023-07-20T01:45:03;16.90;80.00
67141;DHT22;54058;52.010;5.546;2023-07-20T01:47:29;16.90;80.10
67141;DHT22;54058;52.010;5.546;2023-07-20T01:49:54;16.90;80.00
67141;DHT22;54058;52.010;5.546;2023-07-20T01:52:20;16.90;80.10
67141;DHT22;54058;52.010;5.546;2023-07-20T01:54:45;16.90;80.10
67141;DHT22;54058;52.010;5.546;2023-07-20T01:57:11;16.90;80.10
67141;DHT22;54058;52.010;5.546;2023-07-20T01:59:36;16.90;80.00
67141;DHT22;54058;52.010;5.546;2023-07-20T02:02:02;16.90;80.00
67141;DHT22;54058;52.010;5.546;2023-07-20T02:04:28;16.80;79.90
67141;DHT22;54058;52.010;5.546;2023-07-20T02:06:53;16.80;80.00
67141;DHT22;54058;52.010;5.546;2023-07-20T02:09:19;16.80;79.90
67141;DHT22;54058;52.010;5.546;2023-07-20T02:11:45;16.80;79.80
67141;DHT22;54058;52.010;5.546;2023-07-20T02:14:11;16.80;79.80
67141;DHT22;54058;52.010;5.546;2023-07-20T02:16:36;16.80;79.90
67141;DHT22;54058;52.010;5.546;2023-07-20T02:19:02;16.70;80.00
67141;DHT22;54058;52.010;5.546;2023-07-20T02:21:29;16.70;80.00
67141;DHT22;54058;52.010;5.546;2023-07-20T02:23:54;16.70;80.00
67141;DHT22;54058;52.010;5.546;2023-07-20T02:26:20;16.60;80.10
67141;DHT22;54058;52.010;5.546;2023-07-20T02:28:45;16.70;80.30
67141;DHT22;54058;52.010;5.546;2023-07-20T02:31:11;16.70;80.20
67141;DHT22;54058;52.010;5.546;2023-07-20T02:33:38;16.70;80.20
67141;DHT22;54058;52.010;5.546;2023-07-20T02:36:03;16.70;80.20
67141;DHT22;54058;52.010;5.546;2023-07-20T02:38:29;16.70;80.40
67141;DHT22;54058;52.010;5.546;2023-07-20T02:40:55;16.70;80.40
67141;DHT22;54058;52.010;5.546;2023-07-20T02:43:20;16.60;80.50
67141;DHT22;54058;52.010;5.546;2023-07-20T02:45:46;16.50;80.60
67141;DHT22;54058;52.010;5.546;2023-07-20T02:48:11;16.50;81.00
67141;DHT22;54058;52.010;5.546;2023-07-20T02:50:37;16.40;80.90
67141;DHT22;54058;52.010;5.546;2023-07-20T02:53:03;16.40;81.00
67141;DHT22;54058;52.010;5.546;2023-07-20T02:55:28;16.30;81.10
67141;DHT22;54058;52.010;5.546;2023-07-20T02:57:54;16.30;81.10
67141;DHT22;54058;52.010;5.546;2023-07-20T03:00:20;16.30;81.00
67141;DHT22;54058;52.010;5.546;2023-07-20T03:02:46;16.30;81.10
67141;DHT22;54058;52.010;5.546;2023-07-20T03:05:21;16.30;81.10
67141;DHT22;54058;52.010;5.546;2023-07-20T03:07:47;16.30;81.00
67141;DHT22;54058;52.010;5.546;2023-07-20T03:10:13;16.30;81.00
67141;DHT22;54058;52.010;5.546;2023-07-20T03:12:38;16.30;81.00
67141;DHT22;54058;52.010;5.546;2023-07-20T03:15:04;16.20;81.10
67141;DHT22;54058;52.010;5.546;2023-07-20T03:17:30;16.20;81.20
67141;DHT22;54058;52.010;5.546;2023-07-20T03:19:56;16.20;81.20
67141;DHT22;54058;52.010;5.546;2023-07-20T03:22:21;16.10;81.20
67141;DHT22;54058;52.010;5.546;2023-07-20T03:24:47;16.10;81.40
67141;DHT22;54058;52.010;5.546;2023-07-20T03:27:13;16.10;81.30
67141;DHT22;54058;52.010;5.546;2023-07-20T03:29:39;16.00;81.30
67141;DHT22;54058;52.010;5.546;2023-07-20T03:32:05;16.00;81.60
67141;DHT22;54058;52.010;5.546;2023-07-20T03:34:31;16.00;81.60
67141;DHT22;54058;52.010;5.546;2023-07-20T03:36:57;16.10;81.60
67141;DHT22;54058;52.010;5.546;2023-07-20T03:39:23;16.10;81.50
67141;DHT22;54058;52.010;5.546;2023-07-20T03:41:48;16.00;81.30
67141;DHT22;54058;52.010;5.546;2023-07-20T03:44:14;16.00;81.50
67141;DHT22;54058;52.010;5.546;2023-07-20T03:46:39;15.90;81.70
67141;DHT22;54058;52.010;5.546;2023-07-20T03:49:05;15.90;82.00
67141;DHT22;54058;52.010;5.546;2023-07-20T03:51:32;15.90;82.10
67141;DHT22;54058;52.010;5.546;2023-07-20T03:53:58;16.00;82.20
67141;DHT22;54058;52.010;5.546;2023-07-20T03:56:23;16.00;82.10
67141;DHT22;54058;52.010;5.546;2023-07-20T03:58:49;16.10;82.10
67141;DHT22;54058;52.010;5.546;2023-07-20T04:01:15;16.00;82.20
67141;DHT22;54058;52.010;5.546;2023-07-20T04:03:42;16.10;82.30
67141;DHT22;54058;52.010;5.546;2023-07-20T04:06:08;16.10;82.10
67141;DHT22;54058;52.010;5.546;2023-07-20T04:08:35;16.10;82.20
67141;DHT22;54058;52.010;5.546;2023-07-20T04:11:03;16.20;82.40
67141;DHT22;54058;52.010;5.546;2023-07-20T04:13:30;16.20;82.30
67141;DHT22;54058;52.010;5.546;2023-07-20T04:15:58;16.20;82.50
67141;DHT22;54058;52.010;5.546;2023-07-20T04:18:24;16.20;82.70
67141;DHT22;54058;52.010;5.546;2023-07-20T04:20:50;16.30;82.90
67141;DHT22;54058;52.010;5.546;2023-07-20T04:23:15;16.30;82.90
67141;DHT22;54058;52.010;5.546;2023-07-20T04:25:42;16.40;83.00
67141;DHT22;54058;52.010;5.546;2023-07-20T04:28:07;16.40;83.10
67141;DHT22;54058;52.010;5.546;2023-07-20T04:30:35;16.40;83.10
67141;DHT22;54058;52.010;5.546;2023-07-20T04:33:01;16.40;83.20
67141;DHT22;54058;52.010;5.546;2023-07-20T04:38:15;16.50;84.00
67141;DHT22;54058;52.010;5.546;2023-07-20T04:40:44;16.50;83.60
67141;DHT22;54058;52.010;5.546;2023-07-20T04:43:10;16.50;83.80
67141;DHT22;54058;52.010;5.546;2023-07-20T04:45:35;16.50;83.90
67141;DHT22;54058;52.010;5.546;2023-07-20T04:48:01;16.50;84.20
67141;DHT22;54058;52.010;5.546;2023-07-20T04:50:27;16.50;84.40
67141;DHT22;54058;52.010;5.546;2023-07-20T04:52:52;16.60;84.40
67141;DHT22;54058;52.010;5.546;2023-07-20T04:55:18;16.70;84.20
67141;DHT22;54058;52.010;5.546;2023-07-20T04:57:44;16.80;84.10
67141;DHT22;54058;52.010;5.546;2023-07-20T05:00:10;16.80;84.30
67141;DHT22;54058;52.010;5.546;2023-07-20T05:02:38;16.80;84.40
67141;DHT22;54058;52.010;5.546;2023-07-20T05:05:04;16.80;84.10
67141;DHT22;54058;52.010;5.546;2023-07-20T05:07:34;16.80;84.00
67141;DHT22;54058;52.010;5.546;2023-07-20T05:09:59;16.80;85.40
67141;DHT22;54058;52.010;5.546;2023-07-20T05:12:25;16.80;83.80
67141;DHT22;54058;52.010;5.546;2023-07-20T05:14:51;16.70;83.80
67141;DHT22;54058;52.010;5.546;2023-07-20T05:17:16;16.70;83.80
67141;DHT22;54058;52.010;5.546;2023-07-20T05:19:42;16.80;83.70
67141;DHT22;54058;52.010;5.546;2023-07-20T05:22:09;16.80;83.60
67141;DHT22;54058;52.010;5.546;2023-07-20T05:24:36;16.80;83.60
67141;DHT22;54058;52.010;5.546;2023-07-20T05:27:01;16.80;83.70
67141;DHT22;54058;52.010;5.546;2023-07-20T05:29:27;16.90;83.60
67141;DHT22;54058;52.010;5.546;2023-07-20T05:31:52;16.80;83.70
67141;DHT22;54058;52.010;5.546;2023-07-20T05:34:18;16.90;83.70
67141;DHT22;54058;52.010;5.546;2023-07-20T05:36:43;17.00;83.60
67141;DHT22;54058;52.010;5.546;2023-07-20T05:39:09;17.00;84.00
67141;DHT22;54058;52.010;5.546;2023-07-20T05:41:35;17.10;83.40
67141;DHT22;54058;52.010;5.546;2023-07-20T05:44:00;17.10;83.30
67141;DHT22;54058;52.010;5.546;2023-07-20T05:46:26;17.30;83.30
67141;DHT22;54058;52.010;5.546;2023-07-20T05:48:51;17.30;83.20
67141;DHT22;54058;52.010;5.546;2023-07-20T05:51:17;17.50;83.20
67141;DHT22;54058;52.010;5.546;2023-07-20T05:53:43;17.50;83.50
67141;DHT22;54058;52.010;5.546;2023-07-20T05:56:08;17.50;82.90
67141;DHT22;54058;52.010;5.546;2023-07-20T05:58:36;17.50;83.10
67141;DHT22;54058;52.010;5.546;2023-07-20T06:01:03;17.40;84.90
67141;DHT22;54058;52.010;5.546;2023-07-20T06:03:31;17.40;83.50
67141;DHT22;54058;52.010;5.546;2023-07-20T06:06:00;17.40;83.70
67141;DHT22;54058;52.010;5.546;2023-07-20T06:08:28;17.40;83.90
67141;DHT22;54058;52.010;5.546;2023-07-20T06:10:54;17.50;83.90
67141;DHT22;54058;52.010;5.546;2023-07-20T06:13:20;17.60;83.80
67141;DHT22;54058;52.010;5.546;2023-07-20T06:15:45;17.70;83.70
67141;DHT22;54058;52.010;5.546;2023-07-20T06:18:13;17.90;83.60
67141;DHT22;54058;52.010;5.546;2023-07-20T06:20:38;18.00;83.40
67141;DHT22;54058;52.010;5.546;2023-07-20T06:23:04;18.00;83.20
67141;DHT22;54058;52.010;5.546;2023-07-20T06:25:31;18.10;83.10
67141;DHT22;54058;52.010;5.546;2023-07-20T06:27:56;18.10;83.10
67141;DHT22;54058;52.010;5.546;2023-07-20T06:30:22;18.30;83.10
67141;DHT22;54058;52.010;5.546;2023-07-20T06:32:48;18.40;83.10
67141;DHT22;54058;52.010;5.546;2023-07-20T06:35:15;18.70;82.90
67141;DHT22;54058;52.010;5.546;2023-07-20T06:37:41;18.70;82.50
67141;DHT22;54058;52.010;5.546;2023-07-20T06:40:07;18.70;82.40
67141;DHT22;54058;52.010;5.546;2023-07-20T06:42:35;18.80;82.50
67141;DHT22;54058;52.010;5.546;2023-07-20T06:45:00;19.50;83.20
67141;DHT22;54058;52.010;5.546;2023-07-20T06:47:26;20.30;82.90
67141;DHT22;54058;52.010;5.546;2023-07-20T06:49:52;21.00;83.00
67141;DHT22;54058;52.010;5.546;2023-07-20T06:52:17;21.50;82.80
67141;DHT22;54058;52.010;5.546;2023-07-20T06:54:46;21.80;83.40
67141;DHT22;54058;52.010;5.546;2023-07-20T06:57:16;21.80;83.30
67141;DHT22;54058;52.010;5.546;2023-07-20T06:59:41;22.40;83.80
67141;DHT22;54058;52.010;5.546;2023-07-20T07:02:12;23.20;83.40
67141;DHT22;54058;52.010;5.546;2023-07-20T07:04:38;24.00;83.20
67141;DHT22;54058;52.010;5.546;2023-07-20T07:07:04;24.40;82.60
67141;DHT22;54058;52.010;5.546;2023-07-20T07:09:31;24.60;82.80
67141;DHT22;54058;52.010;5.546;2023-07-20T07:11:57;24.50;82.40
67141;DHT22;54058;52.010;5.546;2023-07-20T07:15:01;24.40;82.20
67141;DHT22;54058;52.010;5.546;2023-07-20T07:18:18;24.40;77.00
67141;DHT22;54058;52.010;5.546;2023-07-20T07:37:34;23.20;77.30
67141;DHT22;54058;52.010;5.546;2023-07-20T07:40:12;23.00;78.20
67141;DHT22;54058;52.010;5.546;2023-07-20T07:42:45;22.90;78.00
67141;DHT22;54058;52.010;5.546;2023-07-20T07:45:37;22.70;77.70
67141;DHT22;54058;52.010;5.546;2023-07-20T07:51:36;22.00;74.20
67141;DHT22;54058;52.010;5.546;2023-07-20T07:54:10;21.70;76.30
67141;DHT22;54058;52.010;5.546;2023-07-20T07:56:36;21.30;76.70
67141;DHT22;54058;52.010;5.546;2023-07-20T07:59:02;21.30;76.50
67141;DHT22;54058;52.010;5.546;2023-07-20T08:01:28;21.10;76.30
67141;DHT22;54058;52.010;5.546;2023-07-20T08:03:54;21.00;76.60
67141;DHT22;54058;52.010;5.546;2023-07-20T08:06:19;20.70;76.40
67141;DHT22;54058;52.010;5.546;2023-07-20T08:08:45;20.70;76.50
67141;DHT22;54058;52.010;5.546;2023-07-20T08:11:11;20.80;76.30
67141;DHT22;54058;52.010;5.546;2023-07-20T08:13:36;21.10;76.00
67141;DHT22;54058;52.010;5.546;2023-07-20T08:16:02;21.10;74.80
67141;DHT22;54058;52.010;5.546;2023-07-20T08:18:28;21.20;75.50
67141;DHT22;54058;52.010;5.546;2023-07-20T08:20:54;21.50;75.30
67141;DHT22;54058;52.010;5.546;2023-07-20T08:23:20;21.70;75.40
67141;DHT22;54058;52.010;5.546;2023-07-20T08:25:46;21.90;75.90
67141;DHT22;54058;52.010;5.546;2023-07-20T08:28:16;22.20;76.20
67141;DHT22;54058;52.010;5.546;2023-07-20T08:30:46;22.40;75.90
67141;DHT22;54058;52.010;5.546;2023-07-20T08:33:17;22.30;74.80
67141;DHT22;54058;52.010;5.546;2023-07-20T08:35:46;22.30;74.70
67141;DHT22;54058;52.010;5.546;2023-07-20T08:38:12;22.30;74.80
67141;DHT22;54058;52.010;5.546;2023-07-20T08:40:45;22.30;74.80
67141;DHT22;54058;52.010;5.546;2023-07-20T08:43:12;22.30;74.10
67141;DHT22;54058;52.010;5.546;2023-07-20T08:45:39;22.50;76.30
67141;DHT22;54058;52.010;5.546;2023-07-20T08:48:06;22.80;75.60
67141;DHT22;54058;52.010;5.546;2023-07-20T08:50:33;22.80;73.80
67141;DHT22;54058;52.010;5.546;2023-07-20T08:52:59;22.20;73.50
67141;DHT22;54058;52.010;5.546;2023-07-20T08:55:26;21.70;73.50
67141;DHT22;54058;52.010;5.546;2023-07-20T08:57:56;21.40;73.70
67141;DHT22;54058;52.010;5.546;2023-07-20T09:00:23;21.40;73.30
67141;DHT22;54058;52.010;5.546;2023-07-20T09:02:50;21.30;74.00
67141;DHT22;54058;52.010;5.546;2023-07-20T09:05:20;21.30;73.30
67141;DHT22;54058;52.010;5.546;2023-07-20T09:07:46;21.60;73.50
67141;DHT22;54058;52.010;5.546;2023-07-20T09:10:12;22.00;73.10
67141;DHT22;54058;52.010;5.546;2023-07-20T09:12:43;22.70;72.30
67141;DHT22;54058;52.010;5.546;2023-07-20T09:15:11;23.30;70.90
67141;DHT22;54058;52.010;5.546;2023-07-20T09:17:37;23.80;70.50
67141;DHT22;54058;52.010;5.546;2023-07-20T09:20:07;24.00;69.40
67141;DHT22;54058;52.010;5.546;2023-07-20T09:22:37;24.20;69.30
67141;DHT22;54058;52.010;5.546;2023-07-20T09:27:46;24.20;67.10
67141;DHT22;54058;52.010;5.546;2023-07-20T09:30:13;24.00;68.50
67141;DHT22;54058;52.010;5.546;2023-07-20T09:32:43;23.70;68.50
67141;DHT22;54058;52.010;5.546;2023-07-20T09:35:19;23.30;67.40
67141;DHT22;54058;52.010;5.546;2023-07-20T09:38:06;23.00;67.40
67141;DHT22;54058;52.010;5.546;2023-07-20T09:40:37;22.80;66.30
67141;DHT22;54058;52.010;5.546;2023-07-20T09:43:08;22.60;67.80
67141;DHT22;54058;52.010;5.546;2023-07-20T09:45:40;22.40;68.10
67141;DHT22;54058;52.010;5.546;2023-07-20T09:48:11;22.20;67.10
67141;DHT22;54058;52.010;5.546;2023-07-20T09:50:48;21.80;67.00
67141;DHT22;54058;52.010;5.546;2023-07-20T09:53:15;21.60;66.50
67141;DHT22;54058;52.010;5.546;2023-07-20T09:55:44;21.50;67.50
67141;DHT22;54058;52.010;5.546;2023-07-20T09:58:10;21.60;67.00
67141;DHT22;54058;52.010;5.546;2023-07-20T10:00:38;21.60;67.00
67141;DHT22;54058;52.010;5.546;2023-07-20T10:03:05;21.60;66.90
67141;DHT22;54058;52.010;5.546;2023-07-20T10:05:36;21.70;66.80
67141;DHT22;54058;52.010;5.546;2023-07-20T10:08:07;21.80;65.60
67141;DHT22;54058;52.010;5.546;2023-07-20T10:10:35;21.60;66.00
67141;DHT22;54058;52.010;5.546;2023-07-20T10:13:01;21.50;66.20
67141;DHT22;54058;52.010;5.546;2023-07-20T10:15:42;21.50;66.10
67141;DHT22;54058;52.010;5.546;2023-07-20T10:18:25;21.60;65.80
67141;DHT22;54058;52.010;5.546;2023-07-20T10:20:55;21.60;65.80
67141;DHT22;54058;52.010;5.546;2023-07-20T10:23:22;21.60;66.10
67141;DHT22;54058;52.010;5.546;2023-07-20T10:25:50;21.60;66.00
67141;DHT22;54058;52.010;5.546;2023-07-20T10:28:16;21.40;65.70
67141;DHT22;54058;52.010;5.546;2023-07-20T10:30:42;21.20;65.50
67141;DHT22;54058;52.010;5.546;2023-07-20T10:33:09;21.20;66.00
67141;DHT22;54058;52.010;5.546;2023-07-20T10:35:56;21.30;66.00
67141;DHT22;54058;52.010;5.546;2023-07-20T10:38:52;21.50;65.20
67141;DHT22;54058;52.010;5.546;2023-07-20T10:41:28;21.80;63.20
67141;DHT22;54058;52.010;5.546;2023-07-20T10:44:23;21.70;60.50
67141;DHT22;54058;52.010;5.546;2023-07-20T10:46:49;21.60;62.90
67141;DHT22;54058;52.010;5.546;2023-07-20T10:49:14;21.60;64.50
67141;DHT22;54058;52.010;5.546;2023-07-20T10:51:56;21.60;64.40
67141;DHT22;54058;52.010;5.546;2023-07-20T10:54:33;21.80;61.00
67141;DHT22;54058;52.010;5.546;2023-07-20T10:57:22;21.80;62.70
67141;DHT22;54058;52.010;5.546;2023-07-20T10:59:49;22.00;57.70
67141;DHT22;54058;52.010;5.546;2023-07-20T11:02:18;21.90;61.90
67141;DHT22;54058;52.010;5.546;2023-07-20T11:04:46;21.90;61.50
67141;DHT22;54058;52.010;5.546;2023-07-20T11:07:17;21.90;62.10
67141;DHT22;54058;52.010;5.546;2023-07-20T11:09:43;22.00;62.40
67141;DHT22;54058;52.010;5.546;2023-07-20T11:12:13;22.10;62.90
67141;DHT22;54058;52.010;5.546;2023-07-20T11:14:56;22.20;62.30
67141;DHT22;54058;52.010;5.546;2023-07-20T11:17:29;22.60;61.60
67141;DHT22;54058;52.010;5.546;2023-07-20T11:19:56;23.00;61.00
67141;DHT22;54058;52.010;5.546;2023-07-20T11:22:22;23.40;60.30
67141;DHT22;54058;52.010;5.546;2023-07-20T11:24:48;23.50;54.40
67141;DHT22;54058;52.010;5.546;2023-07-20T11:27:14;23.60;59.80
67141;DHT22;54058;52.010;5.546;2023-07-20T11:29:40;23.70;55.10
67141;DHT22;54058;52.010;5.546;2023-07-20T11:32:06;23.90;60.00
67141;DHT22;54058;52.010;5.546;2023-07-20T11:34:33;24.00;58.90
67141;DHT22;54058;52.010;5.546;2023-07-20T11:36:59;24.10;59.20
67141;DHT22;54058;52.010;5.546;2023-07-20T11:39:25;24.20;58.80
67141;DHT22;54058;52.010;5.546;2023-07-20T11:41:57;24.00;58.50
67141;DHT22;54058;52.010;5.546;2023-07-20T11:44:25;24.00;58.50
67141;DHT22;54058;52.010;5.546;2023-07-20T11:47:08;24.20;59.20
67141;DHT22;54058;52.010;5.546;2023-07-20T11:49:38;24.60;58.40
67141;DHT22;54058;52.010;5.546;2023-07-20T11:52:09;24.90;58.60
67141;DHT22;54058;52.010;5.546;2023-07-20T11:54:35;25.10;57.80
67141;DHT22;54058;52.010;5.546;2023-07-20T11:57:03;25.20;58.00
67141;DHT22;54058;52.010;5.546;2023-07-20T11:59:31;25.00;57.30
67141;DHT22;54058;52.010;5.546;2023-07-20T12:01:57;24.90;57.40
67141;DHT22;54058;52.010;5.546;2023-07-20T12:04:23;24.80;57.70
67141;DHT22;54058;52.010;5.546;2023-07-20T12:06:49;24.60;57.20
67141;DHT22;54058;52.010;5.546;2023-07-20T12:09:16;24.20;57.40
67141;DHT22;54058;52.010;5.546;2023-07-20T12:11:44;23.90;57.50
67141;DHT22;54058;52.010;5.546;2023-07-20T12:14:12;23.90;57.70
67141;DHT22;54058;52.010;5.546;2023-07-20T12:16:38;23.90;56.90
67141;DHT22;54058;52.010;5.546;2023-07-20T12:19:08;23.80;57.30
67141;DHT22;54058;52.010;5.546;2023-07-20T12:21:35;23.70;57.30
67141;DHT22;54058;52.010;5.546;2023-07-20T12:24:05;23.50;57.60
67141;DHT22;54058;52.010;5.546;2023-07-20T12:26:32;23.50;57.80
67141;DHT22;54058;52.010;5.546;2023-07-20T12:28:58;23.60;57.60
67141;DHT22;54058;52.010;5.546;2023-07-20T12:31:25;23.70;57.50
67141;DHT22;54058;52.010;5.546;2023-07-20T12:33:51;23.60;57.40
67141;DHT22;54058;52.010;5.546;2023-07-20T12:36:18;23.60;57.00
67141;DHT22;54058;52.010;5.546;2023-07-20T12:38:44;23.70;56.80
67141;DHT22;54058;52.010;5.546;2023-07-20T12:41:11;23.70;51.00
67141;DHT22;54058;52.010;5.546;2023-07-20T12:43:43;23.70;56.70
67141;DHT22;54058;52.010;5.546;2023-07-20T12:46:10;24.00;55.80
67141;DHT22;54058;52.010;5.546;2023-07-20T12:48:37;24.10;56.00
67141;DHT22;54058;52.010;5.546;2023-07-20T12:51:05;24.40;55.80
67141;DHT22;54058;52.010;5.546;2023-07-20T12:53:32;24.50;55.80
67141;DHT22;54058;52.010;5.546;2023-07-20T12:55:58;24.60;56.00
67141;DHT22;54058;52.010;5.546;2023-07-20T12:58:23;24.50;52.50
67141;DHT22;54058;52.010;5.546;2023-07-20T13:00:49;24.50;56.00
67141;DHT22;54058;52.010;5.546;2023-07-20T13:03:15;24.60;55.90
67141;DHT22;54058;52.010;5.546;2023-07-20T13:05:41;24.90;56.30
67141;DHT22;54058;52.010;5.546;2023-07-20T13:08:07;24.80;49.30
67141;DHT22;54058;52.010;5.546;2023-07-20T13:10:33;24.60;55.60
67141;DHT22;54058;52.010;5.546;2023-07-20T13:12:59;24.50;55.60
67141;DHT22;54058;52.010;5.546;2023-07-20T13:15:30;24.40;55.00
67141;DHT22;54058;52.010;5.546;2023-07-20T13:17:59;24.10;54.40
67141;DHT22;54058;52.010;5.546;2023-07-20T13:20:26;23.90;55.30
67141;DHT22;54058;52.010;5.546;2023-07-20T13:22:52;23.90;55.60
67141;DHT22;54058;52.010;5.546;2023-07-20T13:25:17;24.00;56.30
67141;DHT22;54058;52.010;5.546;2023-07-20T13:27:44;24.10;55.30
67141;DHT22;54058;52.010;5.546;2023-07-20T13:30:11;23.90;51.10
67141;DHT22;54058;52.010;5.546;2023-07-20T13:32:44;23.80;55.90
67141;DHT22;54058;52.010;5.546;2023-07-20T13:35:14;23.70;55.90
67141;DHT22;54058;52.010;5.546;2023-07-20T13:37:40;23.70;55.70
67141;DHT22;54058;52.010;5.546;2023-07-20T13:40:06;23.60;56.10
67141;DHT22;54058;52.010;5.546;2023-07-20T13:42:37;23.70;56.20
67141;DHT22;54058;52.010;5.546;2023-07-20T13:45:03;23.80;56.00
67141;DHT22;54058;52.010;5.546;2023-07-20T13:47:29;23.90;56.20
67141;DHT22;54058;52.010;5.546;2023-07-20T13:49:55;24.00;56.40
67141;DHT22;54058;52.010;5.546;2023-07-20T13:52:21;24.10;56.50
67141;DHT22;54058;52.010;5.546;2023-07-20T13:54:47;24.20;56.10
67141;DHT22;54058;52.010;5.546;2023-07-20T13:57:12;24.40;55.90
67141;DHT22;54058;52.010;5.546;2023-07-20T13:59:38;24.50;55.70
67141;DHT22;54058;52.010;5.546;2023-07-20T14:02:04;24.40;55.60
67141;DHT22;54058;52.010;5.546;2023-07-20T14:04:30;24.50;55.70
67141;DHT22;54058;52.010;5.546;2023-07-20T14:06:56;24.60;55.40
67141;DHT22;54058;52.010;5.546;2023-07-20T14:09:21;24.70;55.40
67141;DHT22;54058;52.010;5.546;2023-07-20T14:11:47;24.80;55.40
67141;DHT22;54058;52.010;5.546;2023-07-20T14:14:13;24.80;54.90
67141;DHT22;54058;52.010;5.546;2023-07-20T14:16:39;24.50;54.50
67141;DHT22;54058;52.010;5.546;2023-07-20T14:19:04;24.20;54.80
67141;DHT22;54058;52.010;5.546;2023-07-20T14:21:30;23.90;55.30
67141;DHT22;54058;52.010;5.546;2023-07-20T14:23:56;23.60;55.30
67141;DHT22;54058;52.010;5.546;2023-07-20T14:26:23;23.50;55.60
67141;DHT22;54058;52.010;5.546;2023-07-20T14:28:48;23.30;51.50
67141;DHT22;54058;52.010;5.546;2023-07-20T14:31:14;23.20;55.70
67141;DHT22;54058;52.010;5.546;2023-07-20T14:33:40;23.20;55.80
67141;DHT22;54058;52.010;5.546;2023-07-20T14:36:05;23.10;55.00
67141;DHT22;54058;52.010;5.546;2023-07-20T14:38:33;23.10;55.00
67141;DHT22;54058;52.010;5.546;2023-07-20T14:40:59;23.20;54.90
67141;DHT22;54058;52.010;5.546;2023-07-20T14:43:24;23.30;55.20
67141;DHT22;54058;52.010;5.546;2023-07-20T14:45:50;23.40;54.80
67141;DHT22;54058;52.010;5.546;2023-07-20T14:48:16;23.60;54.80
67141;DHT22;54058;52.010;5.546;2023-07-20T14:50:41;23.80;54.80
67141;DHT22;54058;52.010;5.546;2023-07-20T14:53:11;23.80;54.50
67141;DHT22;54058;52.010;5.546;2023-07-20T14:55:37;23.90;54.00
67141;DHT22;54058;52.010;5.546;2023-07-20T14:58:02;23.80;52.90
67141;DHT22;54058;52.010;5.546;2023-07-20T15:00:28;23.70;54.10
67141;DHT22;54058;52.010;5.546;2023-07-20T15:02:55;23.70;53.60
67141;DHT22;54058;52.010;5.546;2023-07-20T15:05:24;23.70;53.90
67141;DHT22;54058;52.010;5.546;2023-07-20T15:07:52;23.90;53.50
67141;DHT22;54058;52.010;5.546;2023-07-20T15:10:17;24.00;53.70
67141;DHT22;54058;52.010;5.546;2023-07-20T15:12:43;24.00;53.50
67141;DHT22;54058;52.010;5.546;2023-07-20T15:15:10;24.10;53.30
67141;DHT22;54058;52.010;5.546;2023-07-20T15:17:37;24.20;52.80
67141;DHT22;54058;52.010;5.546;2023-07-20T15:20:05;24.10;52.90
67141;DHT22;54058;52.010;5.546;2023-07-20T15:22:32;23.90;52.50
67141;DHT22;54058;52.010;5.546;2023-07-20T15:24:58;23.90;53.20
67141;DHT22;54058;52.010;5.546;2023-07-20T15:27:24;23.90;53.50
67141;DHT22;54058;52.010;5.546;2023-07-20T15:29:50;24.00;53.90
67141;DHT22;54058;52.010;5.546;2023-07-20T15:32:18;24.00;53.80
67141;DHT22;54058;52.010;5.546;2023-07-20T15:34:44;24.10;53.90
67141;DHT22;54058;52.010;5.546;2023-07-20T15:37:10;24.10;53.90
67141;DHT22;54058;52.010;5.546;2023-07-20T15:39:37;24.10;53.80
67141;DHT22;54058;52.010;5.546;2023-07-20T15:42:03;24.20;54.10
67141;DHT22;54058;52.010;5.546;2023-07-20T15:44:29;24.20;53.30
67141;DHT22;54058;52.010;5.546;2023-07-20T15:46:55;24.10;53.50
67141;DHT22;54058;52.010;5.546;2023-07-20T15:49:25;24.10;53.90
67141;DHT22;54058;52.010;5.546;2023-07-20T15:51:51;24.00;53.80
67141;DHT22;54058;52.010;5.546;2023-07-20T15:54:16;23.90;53.90
67141;DHT22;54058;52.010;5.546;2023-07-20T15:56:43;23.80;54.30
67141;DHT22;54058;52.010;5.546;2023-07-20T15:59:09;23.70;54.40
67141;DHT22;54058;52.010;5.546;2023-07-20T16:01:35;23.60;53.50
67141;DHT22;54058;52.010;5.546;2023-07-20T16:04:01;23.60;53.90
67141;DHT22;54058;52.010;5.546;2023-07-20T16:06:27;23.70;54.20
67141;DHT22;54058;52.010;5.546;2023-07-20T16:08:53;23.60;54.10